sensor_id;sensor_type;location;lat;lon;timestamp;pressure;altitude;pressure_sealevel;temperature;humidity
35694;BME280;21812;55.536;37.664;2023-05-24T00:01:43;99752.75;;;19.53;66.10
35694;BME280;21812;55.536;37.664;2023-05-24T00:04:08;99751.31;;;19.51;65.52
35694;BME280;21812;55.536;37.664;2023-05-24T00:06:35;99745.69;;;19.19;65.45
35694;BME280;21812;55.536;37.664;2023-05-24T00:09:02;99747.50;;;19.30;66.61
35694;BME280;21812;55.536;37.664;2023-05-24T00:11:28;99747.09;;;19.21;67.11
35694;BME280;21812;55.536;37.664;2023-05-24T00:13:54;99743.97;;;19.12;67.59
35694;BME280;21812;55.536;37.664;2023-05-24T00:16:20;99746.44;;;19.14;67.76
35694;BME280;21812;55.536;37.664;2023-05-24T00:18:46;99743.97;;;19.12;67.25
35694;BME280;21812;55.536;37.664;2023-05-24T00:21:12;99735.53;;;19.09;67.46
35694;BME280;21812;55.536;37.664;2023-05-24T00:23:38;99739.34;;;18.96;67.73
35694;BME280;21812;55.536;37.664;2023-05-24T00:26:04;99744.78;;;18.96;68.42
35694;BME280;21812;55.536;37.664;2023-05-24T00:28:31;99737.88;;;18.88;68.04
35694;BME280;21812;55.536;37.664;2023-05-24T00:30:57;99728.53;;;18.96;68.74
35694;BME280;21812;55.536;37.664;2023-05-24T00:33:23;99729.03;;;18.93;68.32
35694;BME280;21812;55.536;37.664;2023-05-24T00:35:51;99718.31;;;18.69;67.82
35694;BME280;21812;55.536;37.664;2023-05-24T00:38:25;99723.06;;;18.62;68.25
35694;BME280;21812;55.536;37.664;2023-05-24T00:40:53;99724.69;;;18.63;69.14
35694;BME280;21812;55.536;37.664;2023-05-24T00:43:21;99719.88;;;18.65;69.03
35694;BME280;21812;55.536;37.664;2023-05-24T00:45:51;99717.94;;;18.78;68.84
35694;BME280;21812;55.536;37.664;2023-05-24T00:48:25;99718.41;;;18.74;68.18
35694;BME280;21812;55.536;37.664;2023-05-24T00:50:53;99716.28;;;18.76;68.24
35694;BME280;21812;55.536;37.664;2023-05-24T00:53:19;99707.03;;;18.72;68.40
35694;BME280;21812;55.536;37.664;2023-05-24T00:55:45;99704.13;;;18.91;68.54
35694;BME280;21812;55.536;37.664;2023-05-24T00:58:11;99699.00;;;18.78;67.46
35694;BME280;21812;55.536;37.664;2023-05-24T01:00:36;99707.34;;;18.76;67.67
35694;BME280;21812;55.536;37.664;2023-05-24T01:03:02;99703.81;;;18.59;67.58
35694;BME280;21812;55.536;37.664;2023-05-24T01:05:28;99699.22;;;18.30;67.79
35694;BME280;21812;55.536;37.664;2023-05-24T01:16:24;99700.97;;;18.36;70.56
35694;BME280;21812;55.536;37.664;2023-05-24T01:18:56;99698.50;;;18.06;69.98
35694;BME280;21812;55.536;37.664;2023-05-24T01:28:51;99702.13;;;18.12;71.28
35694;BME280;21812;55.536;37.664;2023-05-24T01:31:17;99695.94;;;18.28;71.11
35694;BME280;21812;55.536;37.664;2023-05-24T01:33:48;99704.25;;;18.39;69.76
35694;BME280;21812;55.536;37.664;2023-05-24T01:36:18;99686.63;;;18.36;69.90
35694;BME280;21812;55.536;37.664;2023-05-24T01:38:45;99698.16;;;18.60;69.56
35694;BME280;21812;55.536;37.664;2023-05-24T01:41:22;99671.25;;;18.53;69.65
35694;BME280;21812;55.536;37.664;2023-05-24T01:44:02;99668.81;;;18.69;68.96
35694;BME280;21812;55.536;37.664;2023-05-24T01:46:36;99685.56;;;18.83;68.31
35694;BME280;21812;55.536;37.664;2023-05-24T01:49:10;99689.38;;;18.99;68.13
35694;BME280;21812;55.536;37.664;2023-05-24T01:51:47;99672.38;;;18.86;66.88
35694;BME280;21812;55.536;37.664;2023-05-24T01:54:16;99689.38;;;18.99;67.31
35694;BME280;21812;55.536;37.664;2023-05-24T01:56:46;99664.41;;;18.80;66.57
35694;BME280;21812;55.536;37.664;2023-05-24T01:59:14;99679.59;;;18.98;66.81
35694;BME280;21812;55.536;37.664;2023-05-24T02:01:40;99684.28;;;19.02;66.98
35694;BME280;21812;55.536;37.664;2023-05-24T02:04:06;99687.00;;;19.02;66.23
35694;BME280;21812;55.536;37.664;2023-05-24T02:06:32;99680.00;;;18.89;65.96
35694;BME280;21812;55.536;37.664;2023-05-24T02:08:58;99685.66;;;18.88;66.81
35694;BME280;21812;55.536;37.664;2023-05-24T02:11:24;99683.19;;;18.86;66.60
35694;BME280;21812;55.536;37.664;2023-05-24T02:13:51;99687.22;;;18.84;66.52
35694;BME280;21812;55.536;37.664;2023-05-24T02:16:17;99686.53;;;18.76;66.80
35694;BME280;21812;55.536;37.664;2023-05-24T02:18:43;99680.75;;;18.56;66.65
35694;BME280;21812;55.536;37.664;2023-05-24T02:21:12;99676.53;;;18.60;67.77
35694;BME280;21812;55.536;37.664;2023-05-24T02:23:38;99676.66;;;18.53;66.95
35694;BME280;21812;55.536;37.664;2023-05-24T02:26:03;99679.81;;;18.62;67.63
35694;BME280;21812;55.536;37.664;2023-05-24T02:28:29;99684.19;;;18.80;67.72
35694;BME280;21812;55.536;37.664;2023-05-24T02:30:57;99679.03;;;18.95;67.35
35694;BME280;21812;55.536;37.664;2023-05-24T02:33:23;99671.56;;;18.86;66.83
35694;BME280;21812;55.536;37.664;2023-05-24T02:35:50;99677.56;;;18.88;66.98
35694;BME280;21812;55.536;37.664;2023-05-24T02:38:16;99678.69;;;18.92;67.02
35694;BME280;21812;55.536;37.664;2023-05-24T02:40:41;99672.00;;;18.94;66.68
35694;BME280;21812;55.536;37.664;2023-05-24T02:43:07;99670.44;;;18.99;66.62
35694;BME280;21812;55.536;37.664;2023-05-24T02:45:34;99677.88;;;19.08;66.01
35694;BME280;21812;55.536;37.664;2023-05-24T02:48:01;99668.63;;;18.87;66.14
35694;BME280;21812;55.536;37.664;2023-05-24T02:50:26;99678.69;;;18.92;66.42
35694;BME280;21812;55.536;37.664;2023-05-24T02:52:52;99677.13;;;18.96;65.97
35694;BME280;21812;55.536;37.664;2023-05-24T02:55:18;99671.16;;;18.94;65.83
35694;BME280;21812;55.536;37.664;2023-05-24T02:57:44;99671.09;;;18.89;65.28
35694;BME280;21812;55.536;37.664;2023-05-24T03:00:10;99675.41;;;18.90;65.42
35694;BME280;21812;55.536;37.664;2023-05-24T03:02:38;99663.78;;;18.89;66.24
35694;BME280;21812;55.536;37.664;2023-05-24T03:05:06;99659.66;;;18.70;66.47
35694;BME280;21812;55.536;37.664;2023-05-24T03:07:32;99660.31;;;18.60;67.15
35694;BME280;21812;55.536;37.664;2023-05-24T03:09:59;99662.75;;;18.79;66.93
35694;BME280;21812;55.536;37.664;2023-05-24T03:12:25;99652.63;;;18.86;66.94
35694;BME280;21812;55.536;37.664;2023-05-24T03:14:51;99648.84;;;19.04;66.63
35694;BME280;21812;55.536;37.664;2023-05-24T03:17:16;99643.59;;;19.14;65.58
35694;BME280;21812;55.536;37.664;2023-05-24T03:19:43;99649.38;;;19.23;65.38
35694;BME280;21812;55.536;37.664;2023-05-24T03:22:08;99639.78;;;19.32;65.07
35694;BME280;21812;55.536;37.664;2023-05-24T03:24:34;99641.44;;;19.33;64.68
35694;BME280;21812;55.536;37.664;2023-05-24T03:27:04;99639.63;;;19.39;64.37
35694;BME280;21812;55.536;37.664;2023-05-24T03:29:30;99635.84;;;19.23;64.42
35694;BME280;21812;55.536;37.664;2023-05-24T03:31:56;99635.94;;;19.28;64.49
35694;BME280;21812;55.536;37.664;2023-05-24T03:34:23;99635.56;;;19.19;64.68
35694;BME280;21812;55.536;37.664;2023-05-24T03:36:48;99636.84;;;19.17;65.10
35694;BME280;21812;55.536;37.664;2023-05-24T03:39:14;99633.59;;;19.14;64.65
35694;BME280;21812;55.536;37.664;2023-05-24T03:41:53;99636.53;;;19.13;64.89
35694;BME280;21812;55.536;37.664;2023-05-24T03:44:19;99638.31;;;19.24;66.97
35694;BME280;21812;55.536;37.664;2023-05-24T03:46:45;99641.00;;;19.41;68.77
35694;BME280;21812;55.536;37.664;2023-05-24T03:49:11;99637.84;;;19.49;69.28
35694;BME280;21812;55.536;37.664;2023-05-24T03:51:37;99639.16;;;19.47;67.82
35694;BME280;21812;55.536;37.664;2023-05-24T03:54:02;99648.44;;;19.51;68.22
35694;BME280;21812;55.536;37.664;2023-05-24T03:56:28;99634.16;;;19.56;68.64
35694;BME280;21812;55.536;37.664;2023-05-24T03:58:54;99635.34;;;19.65;68.33
35694;BME280;21812;55.536;37.664;2023-05-24T04:01:22;99638.47;;;19.73;68.56
35694;BME280;21812;55.536;37.664;2023-05-24T04:03:48;99636.63;;;19.79;69.10
35694;BME280;21812;55.536;37.664;2023-05-24T04:06:16;99634.56;;;19.86;69.23
35694;BME280;21812;55.536;37.664;2023-05-24T04:08:43;99635.03;;;19.83;66.49
35694;BME280;21812;55.536;37.664;2023-05-24T04:11:08;99634.78;;;19.85;67.01
35694;BME280;21812;55.536;37.664;2023-05-24T04:13:36;99638.78;;;19.99;66.52
35694;BME280;21812;55.536;37.664;2023-05-24T04:16:02;99633.50;;;20.15;66.78
35694;BME280;21812;55.536;37.664;2023-05-24T04:18:27;99630.06;;;20.24;65.78
35694;BME280;21812;55.536;37.664;2023-05-24T04:20:53;99628.53;;;20.34;65.52
35694;BME280;21812;55.536;37.664;2023-05-24T04:23:19;99623.72;;;20.41;65.11
35694;BME280;21812;55.536;37.664;2023-05-24T04:25:45;99620.50;;;20.44;65.23
35694;BME280;21812;55.536;37.664;2023-05-24T04:28:11;99617.84;;;20.54;65.37
35694;BME280;21812;55.536;37.664;2023-05-24T04:30:36;99628.31;;;20.67;65.12
35694;BME280;21812;55.536;37.664;2023-05-24T04:33:02;99618.88;;;20.75;64.06
35694;BME280;21812;55.536;37.664;2023-05-24T04:35:29;99626.25;;;20.80;63.90
35694;BME280;21812;55.536;37.664;2023-05-24T04:37:55;99626.00;;;20.86;62.89
35694;BME280;21812;55.536;37.664;2023-05-24T04:40:22;99611.88;;;20.84;62.63
35694;BME280;21812;55.536;37.664;2023-05-24T04:42:48;99620.63;;;20.92;61.90
35694;BME280;21812;55.536;37.664;2023-05-24T04:45:14;99627.41;;;20.94;60.97
35694;BME280;21812;55.536;37.664;2023-05-24T04:47:41;99621.47;;;20.97;60.48
35694;BME280;21812;55.536;37.664;2023-05-24T04:50:07;99626.16;;;21.02;60.13
35694;BME280;21812;55.536;37.664;2023-05-24T04:52:33;99625.34;;;21.06;59.41
35694;BME280;21812;55.536;37.664;2023-05-24T04:55:02;99619.91;;;21.06;59.11
35694;BME280;21812;55.536;37.664;2023-05-24T04:57:28;99637.38;;;21.21;58.75
35694;BME280;21812;55.536;37.664;2023-05-24T04:59:53;99637.38;;;21.21;59.02
35694;BME280;21812;55.536;37.664;2023-05-24T05:02:19;99635.25;;;21.23;58.33
35694;BME280;21812;55.536;37.664;2023-05-24T05:04:46;99639.59;;;21.29;58.21
35694;BME280;21812;55.536;37.664;2023-05-24T05:07:12;99636.34;;;21.27;57.88
35694;BME280;21812;55.536;37.664;2023-05-24T05:09:38;99641.78;;;21.32;57.69
35694;BME280;21812;55.536;37.664;2023-05-24T05:12:04;99641.81;;;21.37;57.49
35694;BME280;21812;55.536;37.664;2023-05-24T05:14:30;99635.56;;;21.37;56.88
35694;BME280;21812;55.536;37.664;2023-05-24T05:16:55;99638.84;;;21.39;57.11
35694;BME280;21812;55.536;37.664;2023-05-24T05:19:21;99641.63;;;21.44;56.76
35694;BME280;21812;55.536;37.664;2023-05-24T05:21:47;99647.06;;;21.44;56.52
35694;BME280;21812;55.536;37.664;2023-05-24T05:24:14;99650.00;;;21.42;56.43
35694;BME280;21812;55.536;37.664;2023-05-24T05:26:39;99648.41;;;21.46;56.36
35694;BME280;21812;55.536;37.664;2023-05-24T05:29:06;99648.16;;;21.48;56.43
35694;BME280;21812;55.536;37.664;2023-05-24T05:31:31;99652.25;;;21.51;56.16
35694;BME280;21812;55.536;37.664;2023-05-24T05:33:57;99651.19;;;21.52;56.08
35694;BME280;21812;55.536;37.664;2023-05-24T05:36:23;99650.06;;;21.53;55.57
35694;BME280;21812;55.536;37.664;2023-05-24T05:38:49;99643.03;;;21.57;55.55
35694;BME280;21812;55.536;37.664;2023-05-24T05:41:16;99649.84;;;21.59;55.41
35694;BME280;21812;55.536;37.664;2023-05-24T05:43:42;99633.56;;;21.59;55.37
35694;BME280;21812;55.536;37.664;2023-05-24T05:46:07;99642.50;;;21.60;55.29
35694;BME280;21812;55.536;37.664;2023-05-24T05:48:35;99631.09;;;21.58;55.31
35694;BME280;21812;55.536;37.664;2023-05-24T05:51:01;99633.84;;;21.68;54.88
35694;BME280;21812;55.536;37.664;2023-05-24T05:53:26;99635.78;;;21.78;54.60
35694;BME280;21812;55.536;37.664;2023-05-24T05:55:52;99637.16;;;21.80;55.20
35694;BME280;21812;55.536;37.664;2023-05-24T05:58:18;99636.66;;;21.89;54.50
35694;BME280;21812;55.536;37.664;2023-05-24T06:00:43;99637.75;;;21.93;54.17
35694;BME280;21812;55.536;37.664;2023-05-24T06:03:09;99631.22;;;21.94;54.09
35694;BME280;21812;55.536;37.664;2023-05-24T06:05:35;99635.84;;;21.98;53.65
35694;BME280;21812;55.536;37.664;2023-05-24T06:08:00;99632.88;;;22.00;53.81
35694;BME280;21812;55.536;37.664;2023-05-24T06:10:26;99629.34;;;22.04;53.55
35694;BME280;21812;55.536;37.664;2023-05-24T06:12:52;99631.25;;;22.04;53.33
35694;BME280;21812;55.536;37.664;2023-05-24T06:15:18;99636.69;;;22.04;53.49
35694;BME280;21812;55.536;37.664;2023-05-24T06:17:48;99639.97;;;22.01;53.68
35694;BME280;21812;55.536;37.664;2023-05-24T06:20:14;99640.22;;;21.99;53.17
35694;BME280;21812;55.536;37.664;2023-05-24T06:22:41;99631.78;;;21.96;53.60
35694;BME280;21812;55.536;37.664;2023-05-24T06:25:07;99637.22;;;21.96;53.72
35694;BME280;21812;55.536;37.664;2023-05-24T06:27:33;99638.84;;;21.97;54.81
35694;BME280;21812;55.536;37.664;2023-05-24T06:29:59;99634.78;;;22.04;56.03
35694;BME280;21812;55.536;37.664;2023-05-24T06:32:25;99641.31;;;22.14;58.02
35694;BME280;21812;55.536;37.664;2023-05-24T06:34:50;99634.03;;;22.24;60.95
35694;BME280;21812;55.536;37.664;2023-05-24T06:37:16;99634.59;;;22.37;61.64
35694;BME280;21812;55.536;37.664;2023-05-24T06:39:42;99641.13;;;22.46;59.16
35694;BME280;21812;55.536;37.664;2023-05-24T06:42:07;99642.53;;;22.59;58.70
35694;BME280;21812;55.536;37.664;2023-05-24T06:44:36;99641.16;;;22.67;58.90
35694;BME280;21812;55.536;37.664;2023-05-24T06:47:02;99644.97;;;22.76;59.03
35694;BME280;21812;55.536;37.664;2023-05-24T06:49:28;99637.06;;;22.84;59.18
35694;BME280;21812;55.536;37.664;2023-05-24T06:51:54;99633.81;;;22.88;57.34
35694;BME280;21812;55.536;37.664;2023-05-24T06:54:20;99641.72;;;22.94;56.33
35694;BME280;21812;55.536;37.664;2023-05-24T06:56:46;99631.38;;;22.81;56.17
35694;BME280;21812;55.536;37.664;2023-05-24T06:59:12;99636.53;;;22.77;55.74
35694;BME280;21812;55.536;37.664;2023-05-24T07:01:38;99631.34;;;22.71;55.10
35694;BME280;21812;55.536;37.664;2023-05-24T07:04:05;99624.84;;;22.67;55.44
35694;BME280;21812;55.536;37.664;2023-05-24T07:06:30;99633.00;;;22.72;55.52
35694;BME280;21812;55.536;37.664;2023-05-24T07:08:59;99631.38;;;22.76;55.35
35694;BME280;21812;55.536;37.664;2023-05-24T07:11:27;99627.28;;;22.78;55.10
35694;BME280;21812;55.536;37.664;2023-05-24T07:13:52;99626.47;;;22.78;54.57
35694;BME280;21812;55.536;37.664;2023-05-24T07:16:18;99635.19;;;22.54;53.97
35694;BME280;21812;55.536;37.664;2023-05-24T07:18:44;99632.41;;;22.29;55.51
35694;BME280;21812;55.536;37.664;2023-05-24T07:21:10;99640.28;;;22.25;55.66
35694;BME280;21812;55.536;37.664;2023-05-24T07:23:36;99644.91;;;22.24;55.67
35694;BME280;21812;55.536;37.664;2023-05-24T07:26:03;99638.91;;;22.22;54.98
35694;BME280;21812;55.536;37.664;2023-05-24T07:28:29;99637.31;;;22.27;55.57
35694;BME280;21812;55.536;37.664;2023-05-24T07:30:55;99634.69;;;21.74;54.17
35694;BME280;21812;55.536;37.664;2023-05-24T07:33:21;99639.88;;;21.27;56.79
35694;BME280;21812;55.536;37.664;2023-05-24T07:35:46;99637.28;;;21.05;55.78
35694;BME280;21812;55.536;37.664;2023-05-24T07:38:17;99643.44;;;20.96;56.59
35694;BME280;21812;55.536;37.664;2023-05-24T07:40:43;99643.63;;;20.84;57.93
35694;BME280;21812;55.536;37.664;2023-05-24T07:43:09;99647.88;;;20.69;59.55
35694;BME280;21812;55.536;37.664;2023-05-24T07:45:35;99642.84;;;20.56;60.45
35694;BME280;21812;55.536;37.664;2023-05-24T07:48:00;99643.88;;;20.50;59.09
35694;BME280;21812;55.536;37.664;2023-05-24T07:50:26;99648.72;;;20.48;59.22
35694;BME280;21812;55.536;37.664;2023-05-24T07:52:55;99647.06;;;20.42;59.86
35694;BME280;21812;55.536;37.664;2023-05-24T07:55:21;99654.31;;;20.36;60.42
35694;BME280;21812;55.536;37.664;2023-05-24T07:57:46;99652.56;;;20.25;61.01
35694;BME280;21812;55.536;37.664;2023-05-24T08:00:12;99650.75;;;20.30;59.33
35694;BME280;21812;55.536;37.664;2023-05-24T08:02:42;99649.63;;;20.26;60.26
35694;BME280;21812;55.536;37.664;2023-05-24T08:05:11;99639.69;;;20.10;59.17
35694;BME280;21812;55.536;37.664;2023-05-24T08:07:36;99656.56;;;20.17;59.55
35694;BME280;21812;55.536;37.664;2023-05-24T08:10:03;99663.63;;;20.18;59.61
35694;BME280;21812;55.536;37.664;2023-05-24T08:12:30;99653.06;;;20.22;59.28
35694;BME280;21812;55.536;37.664;2023-05-24T08:14:56;99663.63;;;20.18;60.41
35694;BME280;21812;55.536;37.664;2023-05-24T08:17:22;99660.97;;;20.23;59.79
35694;BME280;21812;55.536;37.664;2023-05-24T08:19:47;99660.72;;;20.25;59.89
35694;BME280;21812;55.536;37.664;2023-05-24T08:22:13;99667.50;;;20.27;59.80
35694;BME280;21812;55.536;37.664;2023-05-24T08:24:40;99670.78;;;20.29;59.44
35694;BME280;21812;55.536;37.664;2023-05-24T08:27:06;99666.50;;;20.34;59.25
35694;BME280;21812;55.536;37.664;2023-05-24T08:29:32;99664.34;;;20.36;60.31
35694;BME280;21812;55.536;37.664;2023-05-24T08:31:57;99663.88;;;20.44;59.97
35694;BME280;21812;55.536;37.664;2023-05-24T08:34:24;99662.28;;;20.48;60.24
35694;BME280;21812;55.536;37.664;2023-05-24T08:36:49;99654.72;;;20.50;60.19
35694;BME280;21812;55.536;37.664;2023-05-24T08:39:15;99655.25;;;20.47;60.32
35694;BME280;21812;55.536;37.664;2023-05-24T08:41:41;99659.81;;;20.41;60.41
35694;BME280;21812;55.536;37.664;2023-05-24T08:44:07;99659.81;;;20.46;61.14
35694;BME280;21812;55.536;37.664;2023-05-24T08:46:35;99665.06;;;20.53;62.27
35694;BME280;21812;55.536;37.664;2023-05-24T08:49:02;99668.41;;;20.60;61.61
35694;BME280;21812;55.536;37.664;2023-05-24T08:51:28;99662.00;;;20.72;62.18
35694;BME280;21812;55.536;37.664;2023-05-24T08:53:57;99662.09;;;20.82;60.87
35694;BME280;21812;55.536;37.664;2023-05-24T08:56:24;99655.31;;;20.84;60.76
35694;BME280;21812;55.536;37.664;2023-05-24T08:58:52;99653.44;;;20.90;61.38
35694;BME280;21812;55.536;37.664;2023-05-24T09:01:18;99657.88;;;21.01;60.57
35694;BME280;21812;55.536;37.664;2023-05-24T09:03:45;99658.53;;;21.19;61.53
35694;BME280;21812;55.536;37.664;2023-05-24T09:06:12;99660.78;;;21.27;60.59
35694;BME280;21812;55.536;37.664;2023-05-24T09:08:39;99662.16;;;21.29;59.51
35694;BME280;21812;55.536;37.664;2023-05-24T09:11:07;99652.44;;;21.39;59.90
35694;BME280;21812;55.536;37.664;2023-05-24T09:13:33;99654.41;;;21.48;58.48
35694;BME280;21812;55.536;37.664;2023-05-24T09:16:00;99658.78;;;21.50;57.24
35694;BME280;21812;55.536;37.664;2023-05-24T09:18:26;99649.56;;;21.61;56.44
35694;BME280;21812;55.536;37.664;2023-05-24T09:20:51;99655.09;;;21.76;57.64
35694;BME280;21812;55.536;37.664;2023-05-24T09:23:17;99658.41;;;21.99;57.74
35694;BME280;21812;55.536;37.664;2023-05-24T09:25:44;99660.91;;;22.16;56.66
35694;BME280;21812;55.536;37.664;2023-05-24T09:28:15;99655.50;;;22.21;54.82
35694;BME280;21812;55.536;37.664;2023-05-24T09:30:43;99667.78;;;22.29;55.12
35694;BME280;21812;55.536;37.664;2023-05-24T09:33:09;99664.50;;;22.37;55.69
35694;BME280;21812;55.536;37.664;2023-05-24T09:35:35;99662.91;;;22.36;54.29
35694;BME280;21812;55.536;37.664;2023-05-24T09:38:01;99661.56;;;22.59;55.60
35694;BME280;21812;55.536;37.664;2023-05-24T09:40:29;99653.94;;;22.81;55.31
35694;BME280;21812;55.536;37.664;2023-05-24T09:43:05;99661.28;;;22.86;54.48
35694;BME280;21812;55.536;37.664;2023-05-24T09:45:40;99660.22;;;22.87;53.73
35694;BME280;21812;55.536;37.664;2023-05-24T09:48:11;99653.13;;;22.71;55.06
35694;BME280;21812;55.536;37.664;2023-05-24T09:50:37;99657.50;;;22.56;52.54
35694;BME280;21812;55.536;37.664;2023-05-24T09:53:03;99663.19;;;22.50;51.91
35694;BME280;21812;55.536;37.664;2023-05-24T09:55:29;99660.75;;;22.53;53.25
35694;BME280;21812;55.536;37.664;2023-05-24T09:58:08;99657.22;;;22.53;54.67
35694;BME280;21812;55.536;37.664;2023-05-24T10:00:39;99666.44;;;22.52;54.58
35694;BME280;21812;55.536;37.664;2023-05-24T10:03:08;99648.22;;;22.32;53.57
35694;BME280;21812;55.536;37.664;2023-05-24T10:05:36;99674.88;;;22.55;53.61
35694;BME280;21812;55.536;37.664;2023-05-24T10:08:03;99670.81;;;22.58;53.81
35694;BME280;21812;55.536;37.664;2023-05-24T10:10:33;99672.97;;;22.56;53.60
35694;BME280;21812;55.536;37.664;2023-05-24T10:13:00;99679.53;;;22.60;53.82
35694;BME280;21812;55.536;37.664;2023-05-24T10:15:27;99676.53;;;22.61;52.53
35694;BME280;21812;55.536;37.664;2023-05-24T10:17:54;99681.97;;;22.56;53.01
35694;BME280;21812;55.536;37.664;2023-05-24T10:20:21;99683.03;;;22.50;53.26
35694;BME280;21812;55.536;37.664;2023-05-24T10:22:51;99671.09;;;22.41;54.68
35694;BME280;21812;55.536;37.664;2023-05-24T10:25:21;99688.50;;;22.45;53.79
35694;BME280;21812;55.536;37.664;2023-05-24T10:27:51;99649.78;;;22.22;54.83
35694;BME280;21812;55.536;37.664;2023-05-24T10:30:37;99691.22;;;22.71;55.48
35694;BME280;21812;55.536;37.664;2023-05-24T10:33:07;99689.63;;;22.85;53.37
35694;BME280;21812;55.536;37.664;2023-05-24T10:35:34;99689.06;;;22.98;53.17
35694;BME280;21812;55.536;37.664;2023-05-24T10:38:07;99697.81;;;23.21;53.75
35694;BME280;21812;55.536;37.664;2023-05-24T10:40:34;99685.47;;;23.49;53.68
35694;BME280;21812;55.536;37.664;2023-05-24T10:43:03;99668.31;;;23.49;52.58
35694;BME280;21812;55.536;37.664;2023-05-24T10:45:32;99690.59;;;23.71;51.77
35694;BME280;21812;55.536;37.664;2023-05-24T10:50:49;99681.25;;;23.98;52.81
35694;BME280;21812;55.536;37.664;2023-05-24T10:53:16;99683.22;;;24.37;49.89
35694;BME280;21812;55.536;37.664;2023-05-24T10:58:43;99675.69;;;24.18;50.08
35694;BME280;21812;55.536;37.664;2023-05-24T11:01:26;99694.28;;;24.06;49.79
35694;BME280;21812;55.536;37.664;2023-05-24T11:04:05;99701.50;;;23.76;49.56
35694;BME280;21812;55.536;37.664;2023-05-24T11:09:21;99702.66;;;23.39;52.72
35694;BME280;21812;55.536;37.664;2023-05-24T11:11:49;99703.50;;;23.40;52.35
35694;BME280;21812;55.536;37.664;2023-05-24T11:14:21;99711.66;;;23.35;52.53
35694;BME280;21812;55.536;37.664;2023-05-24T11:16:48;99704.88;;;23.32;52.31
35694;BME280;21812;55.536;37.664;2023-05-24T11:19:21;99712.47;;;23.35;51.69
35694;BME280;21812;55.536;37.664;2023-05-24T11:21:51;99717.91;;;23.35;52.62
35694;BME280;21812;55.536;37.664;2023-05-24T11:24:23;99716.00;;;23.41;51.11
35694;BME280;21812;55.536;37.664;2023-05-24T11:26:50;99704.31;;;23.40;51.50
35694;BME280;21812;55.536;37.664;2023-05-24T11:29:17;99709.22;;;23.38;51.62
35694;BME280;21812;55.536;37.664;2023-05-24T11:31:48;99716.03;;;23.31;51.85
35694;BME280;21812;55.536;37.664;2023-05-24T11:34:13;99711.94;;;23.28;51.77
35694;BME280;21812;55.536;37.664;2023-05-24T11:36:41;99718.78;;;23.15;52.45
35694;BME280;21812;55.536;37.664;2023-05-24T11:39:07;99709.22;;;23.13;53.87
35694;BME280;21812;55.536;37.664;2023-05-24T11:41:37;99706.50;;;23.02;54.19
35694;BME280;21812;55.536;37.664;2023-05-24T11:44:04;99707.84;;;22.90;53.89
35694;BME280;21812;55.536;37.664;2023-05-24T11:46:30;99714.66;;;22.82;53.26
35694;BME280;21812;55.536;37.664;2023-05-24T11:48:57;99713.28;;;22.84;53.64
35694;BME280;21812;55.536;37.664;2023-05-24T11:51:31;99715.19;;;22.79;50.34
35694;BME280;21812;55.536;37.664;2023-05-24T11:53:57;99714.38;;;22.83;50.77
35694;BME280;21812;55.536;37.664;2023-05-24T11:56:29;99709.19;;;22.92;51.07
35694;BME280;21812;55.536;37.664;2023-05-24T11:59:08;99719.03;;;22.98;50.70
35694;BME280;21812;55.536;37.664;2023-05-24T12:01:34;99716.28;;;22.98;50.76
35694;BME280;21812;55.536;37.664;2023-05-24T12:04:00;99711.94;;;22.97;49.90
35694;BME280;21812;55.536;37.664;2023-05-24T12:06:43;99708.94;;;22.99;50.20
35694;BME280;21812;55.536;37.664;2023-05-24T12:09:11;99704.28;;;22.79;52.06
35694;BME280;21812;55.536;37.664;2023-05-24T12:11:41;99708.09;;;22.73;52.75
35694;BME280;21812;55.536;37.664;2023-05-24T12:14:14;99708.66;;;22.75;51.76
35694;BME280;21812;55.536;37.664;2023-05-24T12:16:44;99676.81;;;22.55;50.79
35694;BME280;21812;55.536;37.664;2023-05-24T12:19:30;99702.66;;;22.73;51.27
35694;BME280;21812;55.536;37.664;2023-05-24T12:22:05;99698.28;;;22.61;51.14
35694;BME280;21812;55.536;37.664;2023-05-24T12:24:32;99700.50;;;22.64;52.69
35694;BME280;21812;55.536;37.664;2023-05-24T12:27:02;99697.78;;;22.70;50.44
35694;BME280;21812;55.536;37.664;2023-05-24T12:29:32;99698.84;;;22.79;51.23
35694;BME280;21812;55.536;37.664;2023-05-24T12:31:58;99700.75;;;22.94;50.98
35694;BME280;21812;55.536;37.664;2023-05-24T12:34:24;99693.41;;;23.30;50.22
35694;BME280;21812;55.536;37.664;2023-05-24T12:36:52;99685.78;;;23.42;50.51
35694;BME280;21812;55.536;37.664;2023-05-24T12:39:27;99694.72;;;23.64;50.74
35694;BME280;21812;55.536;37.664;2023-05-24T12:41:58;99675.84;;;23.77;48.61
35694;BME280;21812;55.536;37.664;2023-05-24T12:44:29;99685.03;;;24.07;48.37
35694;BME280;21812;55.536;37.664;2023-05-24T12:46:56;99682.28;;;24.12;48.81
35694;BME280;21812;55.536;37.664;2023-05-24T12:49:23;99679.56;;;24.12;49.38
35694;BME280;21812;55.536;37.664;2023-05-24T12:51:49;99679.09;;;23.90;48.34
35694;BME280;21812;55.536;37.664;2023-05-24T12:54:18;99677.47;;;23.89;49.26
35694;BME280;21812;55.536;37.664;2023-05-24T12:56:44;99673.34;;;23.96;50.11
35694;BME280;21812;55.536;37.664;2023-05-24T12:59:10;99671.38;;;24.12;48.88
35694;BME280;21812;55.536;37.664;2023-05-24T13:01:36;99675.09;;;24.22;47.22
35694;BME280;21812;55.536;37.664;2023-05-24T13:04:02;99674.53;;;24.30;48.40
35694;BME280;21812;55.536;37.664;2023-05-24T13:06:27;99677.31;;;24.19;47.88
35694;BME280;21812;55.536;37.664;2023-05-24T13:08:53;99664.88;;;23.98;47.01
35694;BME280;21812;55.536;37.664;2023-05-24T13:11:19;99688.81;;;24.11;46.89
35694;BME280;21812;55.536;37.664;2023-05-24T13:13:45;99693.22;;;24.02;47.99
35694;BME280;21812;55.536;37.664;2023-05-24T13:16:11;99695.44;;;23.95;47.20